Decoded Metar for UCFO ( in ) (IATA:) | Meteo·Mobile Aviation Weather
aviador You're here:

UCFO Decoded Metar

in
Report Time2019-07-23 03:00:00
UTC Time2019-07-23 03:24:35
Flight Rules vfr VFR
WindVRB at 2 kt
Visibility9999 m
Phenomena:N/A
Clouds:N/A
Expected CloudBase > 7,200 ft AGL from Temp-Dew spread
CeilingNone
Temp31°C
Dew Point13°C (33% RH)
Heat Index30.0°C
QNH1010 hPa
Raw Report
METAR UCFO 230300Z VRB01MPS CAVOK 31/13 Q1010 R12/0///95 NOSIG=

Extra information for UCFO:More info

Social comments